createdAt,value
2022-10-15T00:02:23.803Z,5.06
2022-10-15T00:04:53.997Z,4.98
2022-10-15T00:07:21.844Z,4.92
2022-10-15T00:09:49.589Z,4.89
2022-10-15T00:12:18.409Z,4.89
2022-10-15T00:14:47.923Z,4.88
2022-10-15T00:17:15.298Z,4.84
2022-10-15T00:19:44.070Z,4.82
2022-10-15T00:22:11.527Z,4.77
2022-10-15T00:24:38.897Z,4.73
2022-10-15T00:27:06.551Z,4.70
2022-10-15T00:29:34.475Z,4.68
2022-10-15T00:32:05.011Z,4.65
2022-10-15T00:34:33.847Z,4.63
2022-10-15T00:37:03.245Z,4.61
2022-10-15T00:39:30.690Z,4.56
2022-10-15T00:41:58.385Z,4.54
2022-10-15T00:44:26.698Z,4.49
2022-10-15T00:47:15.078Z,4.48
2022-10-15T00:50:11.830Z,4.48
2022-10-15T00:52:44.930Z,4.44
2022-10-15T00:55:19.508Z,4.43
2022-10-15T00:57:48.909Z,4.42
2022-10-15T01:00:18.356Z,4.41
2022-10-15T01:02:50.688Z,4.42
2022-10-15T01:05:18.778Z,4.41
2022-10-15T01:07:47.168Z,4.36
2022-10-15T01:10:16.793Z,4.37
2022-10-15T01:13:21.613Z,4.35
2022-10-15T01:16:01.229Z,4.29
2022-10-15T01:18:35.888Z,4.25
2022-10-15T01:21:28.324Z,4.22
2022-10-15T01:24:24.373Z,4.23
2022-10-15T01:27:14.929Z,4.23
2022-10-15T01:30:01.224Z,4.22
2022-10-15T01:32:30.632Z,4.22
2022-10-15T01:35:33.107Z,4.21
2022-10-15T01:38:08.894Z,4.22
2022-10-15T01:40:59.152Z,4.33
2022-10-15T01:43:44.448Z,4.53
2022-10-15T01:46:16.860Z,4.50
2022-10-15T01:48:46.305Z,4.38
2022-10-15T01:51:15.229Z,4.28
2022-10-15T01:53:44.297Z,4.21
2022-10-15T01:56:14.767Z,4.16
2022-10-15T01:58:43.758Z,4.13
2022-10-15T02:01:11.852Z,4.05
2022-10-15T02:03:52.895Z,4.03
2022-10-15T02:06:34.386Z,4.02
2022-10-15T02:09:13.508Z,3.98
2022-10-15T02:12:15.351Z,4.00
2022-10-15T02:14:52.217Z,3.96
2022-10-15T02:17:31.291Z,3.90
2022-10-15T02:20:23.833Z,3.86
2022-10-15T02:22:57.124Z,3.83
2022-10-15T02:25:26.118Z,3.82
2022-10-15T02:27:55.934Z,3.82
2022-10-15T02:30:27.419Z,3.80
2022-10-15T02:32:56.865Z,3.78
2022-10-15T02:35:25.077Z,3.75
2022-10-15T02:37:54.429Z,3.73
2022-10-15T02:40:23.151Z,3.71
2022-10-15T02:42:52.059Z,3.73
2022-10-15T02:45:20.855Z,3.69
2022-10-15T02:47:48.661Z,3.66
2022-10-15T02:50:16.012Z,3.65
2022-10-15T02:52:43.388Z,3.64
2022-10-15T02:55:10.759Z,3.64
2022-10-15T02:57:38.519Z,3.70
2022-10-15T03:00:06.773Z,3.64
2022-10-15T03:02:34.221Z,3.62
2022-10-15T03:05:01.629Z,3.62
2022-10-15T03:07:29.140Z,3.64
2022-10-15T03:09:56.600Z,3.60
2022-10-15T03:12:26.062Z,3.59
2022-10-15T03:14:53.905Z,3.53
2022-10-15T03:17:21.597Z,3.52
2022-10-15T03:19:50.868Z,3.53
2022-10-15T03:22:18.736Z,3.48
2022-10-15T03:24:46.057Z,3.43
2022-10-15T03:27:13.516Z,3.43
2022-10-15T03:29:42.509Z,3.42
2022-10-15T03:32:13.448Z,3.39
2022-10-15T03:34:40.929Z,3.38
2022-10-15T03:37:08.341Z,3.35
2022-10-15T03:39:35.591Z,3.35
2022-10-15T03:42:02.959Z,3.34
2022-10-15T03:44:30.360Z,3.34
2022-10-15T03:46:57.545Z,3.36
2022-10-15T03:49:24.819Z,3.35
2022-10-15T03:51:52.064Z,3.34
2022-10-15T03:54:19.379Z,3.32
2022-10-15T03:56:46.794Z,3.37
2022-10-15T03:59:14.371Z,3.34
2022-10-15T04:01:42.010Z,3.36
2022-10-15T04:04:11.356Z,3.39
2022-10-15T04:06:40.415Z,3.44
2022-10-15T04:09:11.391Z,3.49
2022-10-15T04:11:39.975Z,3.55
2022-10-15T04:14:07.247Z,3.57
2022-10-15T04:16:34.754Z,3.61
2022-10-15T04:19:07.402Z,3.61
2022-10-15T04:21:39.045Z,3.66
2022-10-15T04:24:06.549Z,3.71
2022-10-15T04:26:34.143Z,3.78
2022-10-15T04:29:01.655Z,4.10
2022-10-15T04:31:29.989Z,4.81
2022-10-15T04:33:58.002Z,5.82
2022-10-15T04:36:25.193Z,6.78
2022-10-15T04:38:55.730Z,7.36
2022-10-15T04:41:25.987Z,7.90
2022-10-15T04:43:53.539Z,8.51
2022-10-15T04:46:22.379Z,8.92
2022-10-15T04:48:50.141Z,9.26
2022-10-15T04:51:20.852Z,9.42
2022-10-15T04:53:49.465Z,9.41
2022-10-15T04:56:19.593Z,9.20
2022-10-15T04:58:48.614Z,8.96
2022-10-15T05:01:18.688Z,8.59
2022-10-15T05:03:47.655Z,8.16
2022-10-15T05:06:17.963Z,7.85
2022-10-15T05:08:46.689Z,7.62
2022-10-15T05:11:21.998Z,7.42
2022-10-15T05:13:53.166Z,7.30
2022-10-15T05:16:24.280Z,7.25
2022-10-15T05:19:00.918Z,7.25
2022-10-15T05:21:28.962Z,7.25
2022-10-15T05:23:56.319Z,7.30
2022-10-15T05:26:25.602Z,7.33
2022-10-15T05:28:53.095Z,7.34
2022-10-15T05:31:30.922Z,7.36
2022-10-15T05:33:59.214Z,7.41
2022-10-15T05:36:29.323Z,7.47
2022-10-15T05:39:01.662Z,7.55
2022-10-15T05:41:29.788Z,7.67
2022-10-15T05:43:58.279Z,7.74
2022-10-15T05:46:28.439Z,7.76
2022-10-15T05:48:57.667Z,7.82
2022-10-15T05:51:26.866Z,7.86
2022-10-15T05:53:55.398Z,7.88
2022-10-15T05:56:23.286Z,7.97
2022-10-15T05:58:53.420Z,8.05
2022-10-15T06:01:25.517Z,8.09
2022-10-15T06:03:53.207Z,8.12
2022-10-15T06:06:26.318Z,8.18
2022-10-15T06:08:54.706Z,8.29
2022-10-15T06:11:23.225Z,8.35
2022-10-15T06:13:50.429Z,8.43
2022-10-15T06:16:23.537Z,8.44
2022-10-15T06:18:57.333Z,8.46
2022-10-15T06:21:25.724Z,8.49
2022-10-15T06:23:53.194Z,8.56
2022-10-15T06:26:20.477Z,8.62
2022-10-15T06:28:48.027Z,8.73
2022-10-15T06:31:15.432Z,8.81
2022-10-15T06:33:45.332Z,8.87
2022-10-15T06:36:14.011Z,8.95
2022-10-15T06:38:44.278Z,9.03
2022-10-15T06:41:11.690Z,9.02
2022-10-15T06:43:44.200Z,8.93
2022-10-15T06:46:11.704Z,8.89
2022-10-15T06:48:39.739Z,8.89
2022-10-15T06:51:07.372Z,8.91
2022-10-15T06:53:34.882Z,8.98
2022-10-15T06:56:03.923Z,9.07
2022-10-15T06:58:33.220Z,9.16
2022-10-15T07:01:06.055Z,9.23
2022-10-15T07:03:36.250Z,9.27
2022-10-15T07:06:05.415Z,9.30
2022-10-15T07:08:38.822Z,9.38
2022-10-15T07:11:09.507Z,9.46
2022-10-15T07:13:37.614Z,9.49
2022-10-15T07:16:13.412Z,9.58
2022-10-15T07:18:40.885Z,9.72
2022-10-15T07:21:11.807Z,9.83
2022-10-15T07:23:39.843Z,9.89
2022-10-15T07:26:08.348Z,9.96
2022-10-15T07:28:48.541Z,10.00
2022-10-15T07:31:16.494Z,10.04
2022-10-15T07:33:46.878Z,10.12
2022-10-15T07:36:15.411Z,10.17
2022-10-15T07:38:45.900Z,10.23
2022-10-15T07:41:15.917Z,10.35
2022-10-15T07:43:45.615Z,10.48
2022-10-15T07:46:16.146Z,10.61
2022-10-15T07:48:43.458Z,10.73
2022-10-15T07:51:12.125Z,10.86
2022-10-15T07:53:39.672Z,10.97
2022-10-15T07:56:11.636Z,11.07
2022-10-15T07:58:40.647Z,11.16
2022-10-15T08:01:11.743Z,11.22
2022-10-15T08:03:39.338Z,11.26
2022-10-15T08:06:08.334Z,11.32
2022-10-15T08:08:36.589Z,11.37
2022-10-15T08:11:10.484Z,11.43
2022-10-15T08:13:42.165Z,11.50
2022-10-15T08:16:12.706Z,11.60
2022-10-15T08:18:40.346Z,11.67
2022-10-15T08:21:08.392Z,11.71
2022-10-15T08:23:36.007Z,11.83
2022-10-15T08:26:03.942Z,11.94
2022-10-15T08:28:32.548Z,12.06
2022-10-15T08:31:05.565Z,12.20
2022-10-15T08:33:35.012Z,12.30
2022-10-15T08:36:06.559Z,12.40
2022-10-15T08:38:35.537Z,12.47
2022-10-15T08:41:04.836Z,12.52
2022-10-15T08:43:38.275Z,12.54
2022-10-15T08:46:23.023Z,12.59
2022-10-15T08:48:54.452Z,12.60
2022-10-15T08:51:24.733Z,12.65
2022-10-15T08:53:56.337Z,12.63
2022-10-15T08:56:42.531Z,12.65
2022-10-15T08:59:28.660Z,12.70
2022-10-15T09:01:59.480Z,12.69
2022-10-15T09:04:50.585Z,12.64
2022-10-15T09:07:30.232Z,12.67
2022-10-15T09:10:07.964Z,12.74
2022-10-15T09:12:57.193Z,12.81
2022-10-15T09:15:31.090Z,12.80
2022-10-15T09:17:58.395Z,12.76
2022-10-15T09:20:32.223Z,12.69
2022-10-15T09:22:59.708Z,12.69
2022-10-15T09:25:33.722Z,12.64
2022-10-15T09:28:08.241Z,12.59
2022-10-15T09:30:43.791Z,12.65
2022-10-15T09:33:22.757Z,12.68
2022-10-15T09:36:00.560Z,12.74
2022-10-15T09:38:44.999Z,12.88
2022-10-15T09:41:41.834Z,12.90
2022-10-15T09:44:13.875Z,12.84
2022-10-15T09:46:49.331Z,12.84
2022-10-15T09:49:21.291Z,12.84
2022-10-15T09:52:02.038Z,12.87
2022-10-15T09:54:44.031Z,12.92
2022-10-15T09:57:16.047Z,12.90
2022-10-15T09:59:58.121Z,12.91
2022-10-15T10:02:28.507Z,12.93
2022-10-15T10:04:56.293Z,13.02
2022-10-15T10:07:35.765Z,13.10
2022-10-15T10:10:24.711Z,13.18
2022-10-15T10:12:52.601Z,13.17
2022-10-15T10:15:41.666Z,13.19
2022-10-15T10:18:19.842Z,13.24
2022-10-15T10:20:57.407Z,13.25
2022-10-15T10:23:32.006Z,13.25
2022-10-15T10:25:59.931Z,13.20
2022-10-15T10:28:32.220Z,13.17
2022-10-15T10:31:05.228Z,13.25
2022-10-15T10:33:42.254Z,13.31
2022-10-15T10:36:30.751Z,13.34
2022-10-15T10:39:28.198Z,13.41
2022-10-15T10:42:06.560Z,13.36
2022-10-15T10:44:46.401Z,13.31
2022-10-15T10:47:20.553Z,13.28
2022-10-15T10:49:56.339Z,13.22
2022-10-15T10:52:26.738Z,13.23
2022-10-15T10:55:02.891Z,13.28
2022-10-15T10:57:35.723Z,13.33
2022-10-15T11:00:04.875Z,13.37
2022-10-15T11:02:34.072Z,13.43
2022-10-15T11:05:01.855Z,13.57
2022-10-15T11:07:35.245Z,13.62
2022-10-15T11:10:25.325Z,13.62
2022-10-15T11:13:18.712Z,13.72
2022-10-15T11:15:53.793Z,13.79
2022-10-15T11:18:25.087Z,13.84
2022-10-15T11:21:19.730Z,13.84
2022-10-15T11:24:05.753Z,13.79
2022-10-15T11:26:59.280Z,13.79
2022-10-15T11:30:05.591Z,13.69
2022-10-15T11:33:05.591Z,13.73
2022-10-15T11:35:52.826Z,13.76
2022-10-15T11:38:30.665Z,13.80
2022-10-15T11:41:19.617Z,13.76
2022-10-15T11:44:40.913Z,13.73
2022-10-15T11:47:34.663Z,13.69
2022-10-15T11:50:22.651Z,13.72
2022-10-15T11:52:55.624Z,13.74
2022-10-15T11:55:41.521Z,13.77
2022-10-15T11:58:16.375Z,13.71
2022-10-15T12:00:50.436Z,13.70
2022-10-15T12:03:24.950Z,13.71
2022-10-15T12:05:55.489Z,13.75
2022-10-15T12:08:24.098Z,13.79
2022-10-15T12:11:01.279Z,13.81
2022-10-15T12:13:55.519Z,13.83
2022-10-15T12:16:55.332Z,13.86
2022-10-15T12:19:27.224Z,13.90
2022-10-15T12:21:54.456Z,13.92
2022-10-15T12:24:45.142Z,13.91
2022-10-15T12:27:36.151Z,13.88
2022-10-15T12:30:03.345Z,13.84
2022-10-15T12:32:31.602Z,13.82
2022-10-15T12:35:01.151Z,13.80
2022-10-15T12:37:30.021Z,13.79
2022-10-15T12:40:03.780Z,13.80
2022-10-15T12:42:35.080Z,13.87
2022-10-15T12:45:06.690Z,13.84
2022-10-15T12:47:50.027Z,13.82
2022-10-15T12:50:22.942Z,13.82
2022-10-15T12:52:57.872Z,13.80
2022-10-15T12:55:36.169Z,13.77
2022-10-15T12:58:26.474Z,13.76
2022-10-15T13:00:53.746Z,13.75
2022-10-15T13:03:32.395Z,13.71
2022-10-15T13:06:21.186Z,13.67
2022-10-15T13:08:54.760Z,13.67
2022-10-15T13:11:45.125Z,13.65
2022-10-15T13:14:12.422Z,13.61
2022-10-15T13:16:45.106Z,13.59
2022-10-15T13:19:39.567Z,13.55
2022-10-15T13:22:21.905Z,13.54
2022-10-15T13:24:49.342Z,13.48
2022-10-15T13:27:30.080Z,13.45
2022-10-15T13:30:04.581Z,13.37
2022-10-15T13:32:55.547Z,13.38
2022-10-15T13:35:31.379Z,13.37
2022-10-15T13:37:59.881Z,13.37
2022-10-15T13:40:28.869Z,13.29
2022-10-15T13:43:03.472Z,13.28
2022-10-15T13:45:31.356Z,13.18
2022-10-15T13:47:58.944Z,13.17
2022-10-15T13:50:37.233Z,13.11
2022-10-15T13:53:22.881Z,13.05
2022-10-15T13:55:56.862Z,13.02
2022-10-15T13:58:29.653Z,13.01
2022-10-15T14:01:03.699Z,12.99
2022-10-15T14:03:32.502Z,12.98
2022-10-15T14:06:21.212Z,12.96
2022-10-15T14:08:50.804Z,12.89
2022-10-15T14:11:19.125Z,12.82
2022-10-15T14:13:57.142Z,12.76
2022-10-15T14:16:41.035Z,12.67
2022-10-15T14:19:15.688Z,12.64
2022-10-15T14:21:47.284Z,12.59
2022-10-15T14:24:19.120Z,12.52
2022-10-15T14:26:47.355Z,12.48
2022-10-15T14:29:38.965Z,12.37
2022-10-15T14:32:29.665Z,12.34
2022-10-15T14:35:00.942Z,12.28
2022-10-15T14:37:42.999Z,12.20
2022-10-15T14:40:10.935Z,12.17
2022-10-15T14:42:40.489Z,12.11
2022-10-15T14:45:28.798Z,12.02
2022-10-15T14:47:58.117Z,11.95
2022-10-15T14:50:30.127Z,11.86
2022-10-15T14:52:58.803Z,11.80
2022-10-15T14:55:33.481Z,11.74
2022-10-15T14:58:08.089Z,11.71
2022-10-15T15:00:42.120Z,11.65
2022-10-15T15:03:21.343Z,11.59
2022-10-15T15:05:52.901Z,11.54
2022-10-15T15:08:21.157Z,11.50
2022-10-15T15:13:27.337Z,11.36
2022-10-15T15:15:56.981Z,11.36
2022-10-15T15:18:24.756Z,11.32
2022-10-15T15:20:55.040Z,11.29
2022-10-15T15:23:24.748Z,11.22
2022-10-15T15:25:54.177Z,11.16
2022-10-15T15:28:24.886Z,11.08
2022-10-15T15:30:58.996Z,11.04
2022-10-15T15:33:28.353Z,11.01
2022-10-15T15:36:01.197Z,10.95
2022-10-15T15:38:31.546Z,10.93
2022-10-15T15:41:04.912Z,10.88
2022-10-15T15:43:35.035Z,10.83
2022-10-15T15:46:02.565Z,10.78
2022-10-15T15:48:32.257Z,10.74
2022-10-15T15:51:05.685Z,10.73
2022-10-15T15:53:33.297Z,10.69
2022-10-15T15:56:00.680Z,10.61
2022-10-15T15:58:28.141Z,10.60
2022-10-15T16:00:56.156Z,10.55
2022-10-15T16:03:26.389Z,10.53
2022-10-15T16:05:55.359Z,10.51
2022-10-15T16:08:22.612Z,10.54
2022-10-15T16:11:09.887Z,10.46
2022-10-15T16:13:38.672Z,10.42
2022-10-15T16:16:06.179Z,10.40
2022-10-15T16:18:34.145Z,10.36
2022-10-15T16:21:09.041Z,10.32
2022-10-15T16:23:36.739Z,10.31
2022-10-15T16:26:03.939Z,10.28
2022-10-15T16:28:32.407Z,10.23
2022-10-15T16:31:29.647Z,10.12
2022-10-15T16:33:58.053Z,10.12
2022-10-15T16:36:26.425Z,10.11
2022-10-15T16:38:57.689Z,10.11
2022-10-15T16:41:25.167Z,10.05
2022-10-15T16:43:53.098Z,9.99
2022-10-15T16:46:23.257Z,9.96
2022-10-15T16:48:55.120Z,9.94
2022-10-15T16:51:25.282Z,9.91
2022-10-15T16:53:52.679Z,9.87
2022-10-15T16:56:22.835Z,9.88
2022-10-15T16:58:50.913Z,9.86
2022-10-15T17:01:21.560Z,9.84
2022-10-15T17:03:49.782Z,9.78
2022-10-15T17:06:21.804Z,9.73
2022-10-15T17:08:50.611Z,9.64
2022-10-15T17:11:22.377Z,9.55
2022-10-15T17:13:53.319Z,9.54
2022-10-15T17:16:32.846Z,9.48
2022-10-15T17:19:01.100Z,9.43
2022-10-15T17:21:29.801Z,9.41
2022-10-15T17:24:00.738Z,9.39
2022-10-15T17:26:33.554Z,9.31
2022-10-15T17:29:05.094Z,9.18
2022-10-15T17:31:32.711Z,9.11
2022-10-15T17:34:07.055Z,9.07
2022-10-15T17:36:43.159Z,9.02
2022-10-15T17:39:13.028Z,8.90
2022-10-15T17:41:41.580Z,8.71
2022-10-15T17:44:10.350Z,8.50
2022-10-15T17:46:38.699Z,8.33
2022-10-15T17:49:06.052Z,8.22
2022-10-15T17:51:34.936Z,8.10
2022-10-15T17:54:02.566Z,7.98
2022-10-15T17:56:31.813Z,7.97
2022-10-15T17:59:02.142Z,7.92
2022-10-15T18:04:23.318Z,7.98
2022-10-15T18:06:50.562Z,7.93
2022-10-15T18:09:18.519Z,7.86
2022-10-15T18:11:49.118Z,7.79
2022-10-15T18:14:18.573Z,7.75
2022-10-15T18:16:46.027Z,7.74
2022-10-15T18:19:14.250Z,7.79
2022-10-15T18:21:44.367Z,7.81
2022-10-15T18:24:14.609Z,7.83
2022-10-15T18:26:41.930Z,7.86
2022-10-15T18:29:09.116Z,7.90
2022-10-15T18:31:37.363Z,7.90
2022-10-15T18:34:04.641Z,7.89
2022-10-15T18:36:33.495Z,7.91
2022-10-15T18:39:00.816Z,7.93
2022-10-15T18:41:30.208Z,7.96
2022-10-15T18:43:59.627Z,7.98
2022-10-15T18:46:30.843Z,8.07
2022-10-15T18:48:59.540Z,8.08
2022-10-15T18:51:29.811Z,8.08
2022-10-15T18:53:59.707Z,8.04
2022-10-15T18:56:31.109Z,7.93
2022-10-15T18:58:58.319Z,7.83
2022-10-15T19:01:25.806Z,7.77
2022-10-15T19:04:07.554Z,7.68
2022-10-15T19:06:43.462Z,7.61
2022-10-15T19:09:17.510Z,7.51
2022-10-15T19:11:48.128Z,7.46
2022-10-15T19:14:16.646Z,7.40
2022-10-15T19:16:45.897Z,7.32
2022-10-15T19:19:17.969Z,7.24
2022-10-15T19:21:46.654Z,7.17
2022-10-15T19:24:15.319Z,7.09
2022-10-15T19:26:46.707Z,7.03
2022-10-15T19:29:16.425Z,6.97
2022-10-15T19:31:45.713Z,6.93
2022-10-15T19:34:19.259Z,6.88
2022-10-15T19:36:51.257Z,6.84
2022-10-15T19:39:21.685Z,6.80
2022-10-15T19:41:51.563Z,6.81
2022-10-15T19:44:25.394Z,6.73
2022-10-15T19:46:55.281Z,6.66
2022-10-15T19:49:24.960Z,6.59
2022-10-15T19:51:52.457Z,6.52
2022-10-15T19:54:19.872Z,6.45
2022-10-15T19:57:07.009Z,6.37
2022-10-15T19:59:34.209Z,6.33
2022-10-15T20:02:01.412Z,6.28
2022-10-15T20:04:28.684Z,6.23
2022-10-15T20:06:58.068Z,6.19
2022-10-15T20:09:25.629Z,6.18
2022-10-15T20:11:52.888Z,6.14
2022-10-15T20:14:22.653Z,6.11
2022-10-15T20:16:52.709Z,6.05
2022-10-15T20:19:21.936Z,5.97
2022-10-15T20:21:50.846Z,5.93
2022-10-15T20:24:18.155Z,5.87
2022-10-15T20:26:45.325Z,5.85
2022-10-15T20:29:17.311Z,5.79
2022-10-15T20:31:44.723Z,5.76
2022-10-15T20:34:12.020Z,5.81
2022-10-15T20:36:41.489Z,5.70
2022-10-15T20:39:09.086Z,5.67
2022-10-15T20:41:36.386Z,5.64
2022-10-15T20:44:05.568Z,5.54
2022-10-15T20:46:37.661Z,5.62
2022-10-15T20:49:09.695Z,5.65
2022-10-15T20:51:40.165Z,5.53
2022-10-15T20:54:10.877Z,5.38
2022-10-15T20:56:38.856Z,5.36
2022-10-15T20:59:07.741Z,5.33
2022-10-15T21:01:36.728Z,5.24
2022-10-15T21:04:04.736Z,5.24
2022-10-15T21:06:32.772Z,5.25
2022-10-15T21:09:00.860Z,5.17
2022-10-15T21:11:28.556Z,5.09
2022-10-15T21:13:55.975Z,5.22
2022-10-15T21:16:25.915Z,5.27
2022-10-15T21:18:57.036Z,5.29
2022-10-15T21:21:24.437Z,5.39
2022-10-15T21:23:55.593Z,5.37
2022-10-15T21:26:23.004Z,5.36
2022-10-15T21:29:14.950Z,5.34
2022-10-15T21:31:43.564Z,5.39
2022-10-15T21:34:14.999Z,5.32
2022-10-15T21:36:45.257Z,5.31
2022-10-15T21:39:12.521Z,5.44
2022-10-15T21:41:39.970Z,5.33
2022-10-15T21:44:08.161Z,5.18
2022-10-15T21:46:36.334Z,5.10
2022-10-15T21:49:04.136Z,5.03
2022-10-15T21:51:33.815Z,4.93
2022-10-15T21:54:02.386Z,4.87
2022-10-15T21:56:31.703Z,4.79
2022-10-15T21:58:59.256Z,4.82
2022-10-15T22:01:34.631Z,4.78
2022-10-15T22:04:12.189Z,4.73
2022-10-15T22:06:40.202Z,4.66
2022-10-15T22:09:09.019Z,4.66
2022-10-15T22:11:41.257Z,4.64
2022-10-15T22:14:12.261Z,4.67
2022-10-15T22:16:41.279Z,4.75
2022-10-15T22:19:11.504Z,4.90
2022-10-15T22:21:39.340Z,4.95
2022-10-15T22:24:17.502Z,5.05
2022-10-15T22:26:50.903Z,5.24
2022-10-15T22:29:20.726Z,5.36
2022-10-15T22:31:49.018Z,5.51
2022-10-15T22:34:17.317Z,5.57
2022-10-15T22:36:45.108Z,5.66
2022-10-15T22:39:14.804Z,5.74
2022-10-15T22:41:44.799Z,5.82
2022-10-15T22:44:19.981Z,5.80
2022-10-15T22:46:49.606Z,5.79
2022-10-15T22:49:19.748Z,5.78
2022-10-15T22:51:47.962Z,5.75
2022-10-15T22:54:17.225Z,5.70
2022-10-15T22:56:45.383Z,5.63
2022-10-15T22:59:18.301Z,5.56
2022-10-15T23:01:45.794Z,5.53
2022-10-15T23:04:15.193Z,5.48
2022-10-15T23:06:45.596Z,5.46
2022-10-15T23:09:18.017Z,5.45
2022-10-15T23:11:46.603Z,5.40
2022-10-15T23:14:16.129Z,5.37
2022-10-15T23:16:45.788Z,5.34
2022-10-15T23:19:21.031Z,5.30
2022-10-15T23:21:52.961Z,5.28
2022-10-15T23:24:22.229Z,5.23
2022-10-15T23:26:49.893Z,5.18
2022-10-15T23:29:20.283Z,5.16
2022-10-15T23:31:48.379Z,5.12
2022-10-15T23:34:23.871Z,5.10
2022-10-15T23:36:51.194Z,5.04
2022-10-15T23:39:24.633Z,4.94
2022-10-15T23:41:52.439Z,4.85
2022-10-15T23:44:25.634Z,4.77
2022-10-15T23:46:54.816Z,4.65
2022-10-15T23:49:22.127Z,4.63
2022-10-15T23:51:49.382Z,4.65
2022-10-15T23:54:18.348Z,4.64
2022-10-15T23:56:47.160Z,4.59
2022-10-15T23:59:15.358Z,4.57
